Time;durP1;ratioP1;P1;durP2;ratioP2;P2;SDS_P1;SDS_P2;PMS_P1;PMS_P2;Temp;Humidity;BMP_temperature;BMP_pressure;BME280_temperature;BME280_humidity;BME280_pressure;Samples;Min_cycle;Max_cycle;Signal;HPM_P1;HPM_P2
2022/09/19 00:01:39;;;;;;;;;1.50;1.50;;;;;13.14;62.84;101934.34;5013735;28;49799;-81
2022/09/19 00:04:09;;;;;;;;;2.00;2.00;;;;;13.26;62.79;101953.19;5013465;28;49714;-77
2022/09/19 00:06:37;;;;;;;;;1.50;1.50;;;;;12.76;63.21;101875.25;5012668;28;49836;-82
2022/09/19 00:09:04;;;;;;;;;4.75;4.00;;;;;12.86;63.15;101919.47;5012820;28;49674;-84
2022/09/19 00:11:29;;;;;;;;;1.00;1.00;;;;;13.05;63.47;101945.53;5012473;28;50071;-86
2022/09/19 00:13:59;;;;;;;;;3.25;3.25;;;;;12.67;63.72;101890.78;5012593;28;49816;-87
2022/09/19 00:16:38;;;;;;;;;4.25;2.50;;;;;13.00;64.41;101960.28;5012283;28;49662;-84
2022/09/19 00:19:05;;;;;;;;;5.00;3.00;;;;;12.98;63.75;101959.38;5012630;28;49878;-75
2022/09/19 00:21:42;;;;;;;;;3.25;3.25;;;;;12.76;64.77;101928.84;5012777;28;50025;-76
2022/09/19 00:26:55;;;;;;;;;5.00;4.00;;;;;12.88;64.77;101954.66;5011880;28;50176;-83
2022/09/19 00:29:20;;;;;;;;;4.00;2.00;;;;;12.75;64.82;101939.34;5011641;28;49767;-84
2022/09/19 00:31:46;;;;;;;;;2.00;2.00;;;;;12.44;64.92;101888.31;5011792;28;49847;-80
2022/09/19 00:34:15;;;;;;;;;3.00;1.75;;;;;12.49;65.02;101907.81;5011940;28;49870;-83
2022/09/19 00:36:42;;;;;;;;;3.50;3.50;;;;;12.76;65.21;101976.28;5011609;28;50729;-78
2022/09/19 00:39:08;;;;;;;;;2.25;2.25;;;;;12.43;65.56;101915.50;4994090;28;49707;-82
2022/09/19 00:41:36;;;;;;;;;0.25;0.25;;;;;12.68;65.56;101969.88;5024443;28;50058;-75
2022/09/19 00:44:03;;;;;;;;;3.00;3.00;;;;;12.63;65.63;101965.28;5033000;28;49107;-75
2022/09/19 00:46:31;;;;;;;;;3.00;2.00;;;;;12.15;66.11;101908.44;5032070;28;49843;-76
2022/09/19 00:49:13;;;;;;;;;2.50;2.50;;;;;12.57;65.85;101968.63;5029808;28;49194;-72
2022/09/19 00:51:45;;;;;;;;;3.50;3.50;;;;;12.07;66.20;101888.03;5025995;28;49762;-84
2022/09/19 00:54:15;;;;;;;;;2.50;2.50;;;;;12.48;66.23;101971.88;5017216;28;49647;-85
2022/09/19 00:56:44;;;;;;;;;3.50;3.50;;;;;12.15;66.29;101918.09;5012776;28;49857;-84
2022/09/19 00:59:10;;;;;;;;;3.75;3.75;;;;;11.84;66.76;101868.81;5011718;28;49671;-84
2022/09/19 01:01:36;;;;;;;;;2.50;2.50;;;;;12.39;66.95;101974.19;5011772;28;50003;-80
2022/09/19 01:04:01;;;;;;;;;2.75;2.75;;;;;12.34;67.01;101973.13;5011674;28;50068;-79
2022/09/19 01:06:32;;;;;;;;;3.00;2.00;;;;;12.32;67.45;101969.56;5011132;28;50401;-88
2022/09/19 01:09:19;;;;;;;;;4.00;4.00;;;;;11.90;67.43;101912.03;5011919;28;49676;-74
2022/09/19 01:12:11;;;;;;;;;3.25;3.25;;;;;11.69;67.42;101874.44;5008432;28;49749;-84
2022/09/19 01:15:09;;;;;;;;;1.00;1.00;;;;;12.07;67.82;101961.72;5011870;28;49972;-83
2022/09/19 01:17:34;;;;;;;;;3.25;3.25;;;;;12.11;68.33;101969.75;5011911;28;50696;-83
2022/09/19 01:19:59;;;;;;;;;3.00;3.00;;;;;12.08;68.58;101985.44;5012224;28;49680;-80
2022/09/19 01:22:31;;;;;;;;;3.50;2.50;;;;;12.06;68.45;101981.84;4994307;28;49990;-77
2022/09/19 01:25:20;;;;;;;;;3.25;3.00;;;;;12.02;68.53;101978.22;5010253;28;50007;-81
2022/09/19 01:28:17;;;;;;;;;2.25;2.25;;;;;11.94;68.45;101977.06;5011404;28;50617;-80
2022/09/19 01:31:16;;;;;;;;;2.00;2.00;;;;;11.83;69.22;101957.38;5011652;28;50027;-82
2022/09/19 01:33:40;;;;;;;;;1.25;1.25;;;;;11.92;69.13;101985.75;5011194;28;49833;-79
2022/09/19 01:36:10;;;;;;;;;4.50;3.50;;;;;11.65;69.14;101944.44;5012056;28;49813;-79
2022/09/19 01:38:38;;;;;;;;;3.50;3.50;;;;;11.86;69.56;101983.78;5011653;28;50551;-80
2022/09/19 01:41:04;;;;;;;;;3.50;3.50;;;;;11.83;70.08;101996.84;5010734;28;49935;-77
2022/09/19 01:43:29;;;;;;;;;3.75;3.75;;;;;11.81;69.46;101982.75;5011457;28;49899;-81
2022/09/19 01:46:02;;;;;;;;;4.50;2.75;;;;;11.27;69.50;101890.50;5011505;28;49565;-82
2022/09/19 01:48:34;;;;;;;;;3.00;3.00;;;;;11.70;69.98;101965.66;5011173;28;50336;-81
2022/09/19 01:51:18;;;;;;;;;6.50;3.75;;;;;11.80;69.97;101985.34;5011058;28;49947;-74
2022/09/19 01:54:23;;;;;;;;;7.00;5.25;;;;;11.58;70.09;101947.72;5009265;28;49799;-75
2022/09/19 01:57:03;;;;;;;;;2.50;2.50;;;;;11.81;70.03;101988.00;5007266;28;49770;-74
2022/09/19 01:59:41;;;;;;;;;3.00;3.00;;;;;11.85;70.17;101982.00;5006107;28;50009;-73
2022/09/19 02:02:39;;;;;;;;;4.00;3.25;;;;;11.89;70.28;101989.19;5010609;28;49549;-74
2022/09/19 02:05:11;;;;;;;;;3.00;3.00;;;;;11.28;69.93;101894.00;5010621;28;49723;-70
2022/09/19 02:07:43;;;;;;;;;4.25;3.50;;;;;11.96;69.99;101992.91;5010816;28;49800;-73
2022/09/19 02:10:17;;;;;;;;;4.75;4.75;;;;;11.66;70.05;101942.72;5011160;28;50247;-74
2022/09/19 02:12:43;;;;;;;;;8.00;4.00;;;;;11.59;69.94;101939.00;5007544;28;49678;-72
2022/09/19 02:15:12;;;;;;;;;4.00;4.00;;;;;11.83;70.49;101978.44;5010355;28;49803;-69
2022/09/19 02:17:51;;;;;;;;;5.75;4.75;;;;;11.98;70.00;101991.25;5010765;28;49879;-69
2022/09/19 02:20:23;;;;;;;;;4.00;4.00;;;;;11.96;70.16;101991.16;5009997;28;49778;-69
2022/09/19 02:22:53;;;;;;;;;4.00;4.00;;;;;11.44;70.13;101907.78;5010143;28;49749;-69
2022/09/19 02:25:30;;;;;;;;;5.50;3.50;;;;;11.41;70.54;101901.53;5010107;28;49864;-69
2022/09/19 02:28:03;;;;;;;;;6.50;5.00;;;;;11.32;70.46;101891.56;5010520;28;50024;-70
2022/09/19 02:30:28;;;;;;;;;4.50;4.50;;;;;11.52;70.37;101936.09;5010021;28;51615;-70
2022/09/19 02:32:54;;;;;;;;;2.50;2.25;;;;;11.34;70.44;101913.53;5010031;28;49946;-73
2022/09/19 02:35:38;;;;;;;;;3.00;3.00;;;;;11.55;70.51;101955.47;5010519;28;49870;-76
2022/09/19 02:38:34;;;;;;;;;4.25;3.25;;;;;11.73;71.07;101992.06;5010178;28;49903;-82
2022/09/19 02:41:23;;;;;;;;;2.00;2.00;;;;;11.48;70.97;101953.47;5010976;28;51615;-81
2022/09/19 02:44:00;;;;;;;;;4.25;3.75;;;;;11.46;71.23;101961.31;5018082;28;49922;-76
2022/09/19 02:46:35;;;;;;;;;8.50;4.75;;;;;11.61;71.38;101991.66;5028606;28;49786;-72
2022/09/19 02:49:20;;;;;;;;;3.50;3.50;;;;;11.53;71.37;101995.72;5029722;28;49262;-83
2022/09/19 02:51:55;;;;;;;;;6.50;6.00;;;;;11.37;71.48;101968.84;5013233;28;49710;-74
2022/09/19 02:54:31;;;;;;;;;6.50;6.25;;;;;11.21;72.10;101952.47;5013501;28;49859;-80
2022/09/19 02:57:01;;;;;;;;;4.00;4.00;;;;;11.46;72.25;102002.47;5013529;28;49804;-81
2022/09/19 02:59:33;;;;;;;;;4.00;4.00;;;;;11.43;72.23;102019.06;5013559;28;49825;-85
2022/09/19 03:02:19;;;;;;;;;7.50;6.50;;;;;11.25;72.66;101976.28;5013373;28;50582;-84
2022/09/19 03:04:51;;;;;;;;;7.75;3.75;;;;;10.86;72.90;101916.16;5013074;28;49809;-74
2022/09/19 03:07:29;;;;;;;;;6.00;6.00;;;;;10.92;72.52;101926.00;5013430;28;49870;-84
2022/09/19 03:10:07;;;;;;;;;6.00;6.00;;;;;11.32;73.11;102001.97;5007165;28;50044;-74
2022/09/19 03:12:40;;;;;;;;;8.00;8.00;;;;;11.30;73.44;101994.88;5007832;28;51859;-84
2022/09/19 03:15:07;;;;;;;;;6.50;4.00;;;;;11.29;72.99;102008.84;5013132;28;49800;-81
2022/09/19 03:17:40;;;;;;;;;5.25;5.25;;;;;11.27;73.06;102002.63;5013292;28;49964;-83
2022/09/19 03:20:11;;;;;;;;;7.50;7.50;;;;;10.69;73.27;101904.09;5013446;28;50054;-83
2022/09/19 03:22:36;;;;;;;;;4.25;4.25;;;;;11.21;74.34;102005.06;5012969;28;51631;-84
2022/09/19 03:25:02;;;;;;;;;4.00;4.00;;;;;10.86;73.65;101955.56;5012958;28;49666;-83
2022/09/19 03:27:27;;;;;;;;;4.75;4.75;;;;;11.17;73.90;102007.53;5013171;28;49855;-81
2022/09/19 03:29:52;;;;;;;;;8.25;5.75;;;;;11.14;73.68;102007.44;5012967;28;49989;-83
2022/09/19 03:32:18;;;;;;;;;7.50;7.00;;;;;10.89;73.72;101976.69;5012966;28;49902;-74
2022/09/19 03:34:43;;;;;;;;;4.75;4.75;;;;;10.93;73.70;101980.34;5013050;28;49845;-86
2022/09/19 03:37:11;;;;;;;;;6.75;5.50;;;;;10.72;73.93;101948.00;5013796;28;49981;-87
2022/09/19 03:39:36;;;;;;;;;3.75;2.75;;;;;11.07;74.41;102007.13;5015070;28;49751;-80
2022/09/19 03:42:01;;;;;;;;;6.75;5.00;;;;;11.05;74.45;102020.22;5014787;28;50516;-80
2022/09/19 03:44:27;;;;;;;;;3.00;3.00;;;;;11.04;74.19;102017.53;5013025;28;49893;-84
2022/09/19 03:46:52;;;;;;;;;8.50;6.25;;;;;10.90;74.11;101998.59;5012734;28;63157;-87
2022/09/19 03:49:19;;;;;;;;;7.25;5.50;;;;;10.56;74.26;101962.25;5014112;28;50484;-77
2022/09/19 03:51:46;;;;;;;;;7.75;6.75;;;;;10.97;74.52;102026.00;5015315;28;50682;-76
2022/09/19 03:54:11;;;;;;;;;8.25;7.00;;;;;10.81;74.35;101993.91;5019806;28;49650;-82
2022/09/19 03:56:37;;;;;;;;;5.00;5.00;;;;;10.94;74.85;102023.28;5017235;28;50082;-78
2022/09/19 03:59:02;;;;;;;;;7.50;7.50;;;;;10.75;75.26;101998.00;5014167;28;50057;-73
2022/09/19 04:01:27;;;;;;;;;4.50;4.50;;;;;10.75;74.60;101996.28;5013633;28;50634;-81
2022/09/19 04:03:53;;;;;;;;;5.25;5.25;;;;;10.81;74.51;102012.28;5012464;28;54804;-73
2022/09/19 04:06:19;;;;;;;;;8.00;6.75;;;;;10.84;74.31;102020.28;5012846;28;49901;-80
2022/09/19 04:08:44;;;;;;;;;5.50;5.50;;;;;10.71;74.92;102004.88;5012927;28;49846;-78
2022/09/19 04:11:11;;;;;;;;;8.00;7.50;;;;;10.80;74.92;102023.59;5012754;28;50607;-82
2022/09/19 04:13:38;;;;;;;;;2.00;2.00;;;;;10.56;75.45;101994.63;5014130;28;50062;-81
2022/09/19 04:16:04;;;;;;;;;6.00;6.00;;;;;10.40;75.19;101965.97;5014588;28;49652;-78
2022/09/19 04:18:30;;;;;;;;;8.00;7.00;;;;;10.45;75.65;101988.06;5014398;28;49868;-75
2022/09/19 04:20:56;;;;;;;;;3.50;3.50;;;;;10.46;75.26;101981.09;5013717;28;49649;-76
2022/09/19 04:23:25;;;;;;;;;4.00;4.00;;;;;10.69;75.68;102029.25;5012645;28;49803;-72
2022/09/19 04:25:50;;;;;;;;;6.00;6.00;;;;;10.63;75.60;102021.16;4995188;28;50084;-73
2022/09/19 04:28:17;;;;;;;;;5.50;5.25;;;;;10.44;75.17;101991.53;5012802;28;49662;-74
2022/09/19 04:30:43;;;;;;;;;6.75;6.75;;;;;10.67;75.62;102037.09;5010911;28;50521;-82
2022/09/19 04:33:12;;;;;;;;;8.75;8.50;;;;;10.66;76.18;102039.66;5011012;28;50123;-75
2022/09/19 04:35:37;;;;;;;;;9.50;7.75;;;;;10.49;75.69;102015.31;5011201;28;50045;-74
2022/09/19 04:38:06;;;;;;;;;8.50;8.50;;;;;10.62;76.62;102040.38;5012761;28;49823;-75
2022/09/19 04:40:40;;;;;;;;;4.75;4.75;;;;;10.17;76.62;101966.72;5011709;28;50885;-75
2022/09/19 04:43:09;;;;;;;;;8.00;7.00;;;;;10.07;75.97;101943.56;5006603;28;50314;-81
2022/09/19 04:45:37;;;;;;;;;8.50;8.50;;;;;10.46;76.34;102018.72;5008150;28;49886;-72
2022/09/19 04:48:05;;;;;;;;;8.50;7.25;;;;;10.21;76.78;101982.66;5010325;28;50320;-78
2022/09/19 04:50:35;;;;;;;;;6.00;6.00;;;;;10.42;77.20;102026.41;5009530;28;50663;-69
2022/09/19 04:53:01;;;;;;;;;6.50;6.50;;;;;10.52;77.34;102052.22;5011863;28;49605;-70
2022/09/19 04:55:27;;;;;;;;;7.50;7.50;;;;;10.15;76.75;101981.53;5003729;28;50801;-70
2022/09/19 04:57:54;;;;;;;;;7.25;7.25;;;;;10.26;77.01;102012.66;5011543;28;50539;-70
2022/09/19 05:00:36;;;;;;;;;7.50;7.50;;;;;10.28;77.29;102016.22;5011203;28;49816;-73
2022/09/19 05:03:11;;;;;;;;;10.75;9.50;;;;;10.16;76.89;101989.44;5009812;28;49983;-69
2022/09/19 05:05:42;;;;;;;;;6.25;6.25;;;;;10.36;76.92;102034.03;5010067;28;49854;-72
2022/09/19 05:08:08;;;;;;;;;8.00;8.00;;;;;10.31;77.72;102024.22;5010744;28;49673;-72
2022/09/19 05:10:33;;;;;;;;;8.00;7.00;;;;;10.43;77.41;102044.88;5010791;28;51718;-72
2022/09/19 05:13:00;;;;;;;;;8.00;8.00;;;;;10.42;77.50;102055.28;5010440;28;49909;-78
2022/09/19 05:15:25;;;;;;;;;7.25;7.00;;;;;10.30;77.72;102027.69;4992988;28;49873;-85
2022/09/19 05:17:55;;;;;;;;;6.50;6.50;;;;;9.67;77.43;101952.38;5009886;28;49730;-77
2022/09/19 05:20:21;;;;;;;;;8.25;5.25;;;;;10.37;77.54;102054.19;5010891;28;49738;-73
2022/09/19 05:22:47;;;;;;;;;8.25;8.00;;;;;10.23;77.81;102030.91;5011226;28;49825;-77
2022/09/19 05:25:15;;;;;;;;;9.25;8.25;;;;;9.51;77.48;101916.72;5009356;28;49818;-78
2022/09/19 05:27:41;;;;;;;;;7.00;7.00;;;;;9.84;77.77;101972.31;5010374;28;49996;-75
2022/09/19 05:30:07;;;;;;;;;4.00;3.00;;;;;10.35;78.35;102051.53;5011174;28;49825;-74
2022/09/19 05:32:34;;;;;;;;;6.00;6.00;;;;;10.36;78.28;102070.78;5011666;28;50088;-72
2022/09/19 05:35:00;;;;;;;;;8.50;7.75;;;;;10.22;77.91;102041.31;5012124;28;49741;-76
2022/09/19 05:37:26;;;;;;;;;7.75;7.25;;;;;10.35;78.29;102061.13;5009784;28;49990;-76
2022/09/19 05:39:51;;;;;;;;;8.75;6.75;;;;;9.45;77.74;101951.41;5012848;28;49981;-76
2022/09/19 05:42:17;;;;;;;;;8.00;8.00;;;;;9.24;77.82;101889.28;5009830;28;50023;-74
2022/09/19 05:44:42;;;;;;;;;8.50;7.25;;;;;10.01;77.71;102026.41;5009788;28;55632;-72
2022/09/19 05:47:08;;;;;;;;;9.50;9.50;;;;;10.15;78.17;102042.75;5010925;28;49545;-74
2022/09/19 05:49:34;;;;;;;;;9.00;9.00;;;;;8.90;77.63;101830.19;5010618;28;50344;-76
2022/09/19 05:53:51;;;;;;;;;2.00;2.00;;;;;8.93;77.69;101853.00;5010879;28;49778;-72
2022/09/19 05:54:45;;;;;;;;;9.50;8.50;;;;;10.29;78.50;102062.63;5010129;28;49703;-77
2022/09/19 05:57:10;;;;;;;;;7.25;6.25;;;;;10.32;78.26;102080.25;5010787;28;50009;-75
2022/09/19 05:59:35;;;;;;;;;7.00;6.75;;;;;10.22;77.98;102050.06;5010428;28;50578;-76
2022/09/19 06:02:01;;;;;;;;;8.75;7.25;;;;;10.06;78.06;102026.63;5010563;28;49674;-74
2022/09/19 06:04:26;;;;;;;;;8.00;8.00;;;;;10.31;78.53;102067.94;5010524;28;49778;-76
2022/09/19 06:06:52;;;;;;;;;12.00;8.00;;;;;9.66;78.01;101961.97;5010716;28;50154;-75
2022/09/19 06:09:17;;;;;;;;;7.50;7.50;;;;;10.31;78.35;102071.47;5010134;28;50569;-75
2022/09/19 06:11:43;;;;;;;;;8.00;7.00;;;;;9.83;78.49;101993.25;5010447;28;49600;-75
2022/09/19 06:14:15;;;;;;;;;5.25;5.25;;;;;8.98;78.27;101862.88;5010481;28;50398;-73
2022/09/19 06:16:41;;;;;;;;;6.75;6.75;;;;;10.40;78.58;102083.19;5010522;28;49893;-75
2022/09/19 06:19:08;;;;;;;;;8.50;7.50;;;;;10.32;78.16;102064.50;5010091;28;49957;-72
2022/09/19 06:21:33;;;;;;;;;9.50;8.25;;;;;10.34;78.96;102064.59;5013131;28;49754;-77
2022/09/19 06:23:59;;;;;;;;;13.50;10.50;;;;;10.55;78.17;102095.25;5010256;28;49853;-77
2022/09/19 06:26:26;;;;;;;;;14.50;11.25;;;;;10.39;78.30;102068.28;5010634;28;49910;-77
2022/09/19 06:28:51;;;;;;;;;15.75;12.50;;;;;10.19;78.77;102063.03;5013652;28;49734;-77
2022/09/19 06:31:17;;;;;;;;;10.50;10.50;;;;;9.34;77.91;101881.91;4995898;28;49817;-77
2022/09/19 06:33:42;;;;;;;;;11.00;9.50;;;;;10.73;77.93;102113.50;5013515;28;49702;-77
2022/09/19 06:36:09;;;;;;;;;13.75;10.25;;;;;9.94;77.72;102007.72;5013990;28;49738;-77
2022/09/19 06:38:35;;;;;;;;;9.00;9.00;;;;;10.00;78.09;101969.53;5013440;28;50039;-77
2022/09/19 06:41:00;;;;;;;;;7.25;7.25;;;;;10.00;77.71;101995.78;5013725;28;49954;-77
2022/09/19 06:43:26;;;;;;;;;13.75;11.50;;;;;10.79;77.49;102092.72;5013597;28;49904;-77
2022/09/19 06:45:52;;;;;;;;;8.50;7.75;;;;;9.85;77.30;101947.91;4995952;28;50013;-77
2022/09/19 06:48:18;;;;;;;;;15.25;11.25;;;;;10.83;77.12;102122.69;5013394;28;49755;-76
2022/09/19 06:50:47;;;;;;;;;4.75;3.50;;;;;11.10;77.06;102133.41;5013400;28;49677;-75
2022/09/19 06:53:12;;;;;;;;;13.50;12.00;;;;;11.12;77.03;102137.91;5014410;28;50143;-70
2022/09/19 06:55:38;;;;;;;;;16.00;9.50;;;;;11.11;77.02;102122.97;5011032;28;50020;-72
2022/09/19 06:58:05;;;;;;;;;10.75;9.75;;;;;11.17;76.92;102135.44;5014205;28;50326;-74
2022/09/19 07:00:35;;;;;;;;;14.50;9.75;;;;;11.28;76.67;102138.50;5015600;28;49735;-73
2022/09/19 07:03:04;;;;;;;;;6.50;3.75;;;;;11.32;76.49;102141.31;5014735;28;49773;-71
2022/09/19 07:05:34;;;;;;;;;8.25;8.00;;;;;11.12;76.31;102094.94;5016502;28;49860;-71
2022/09/19 07:08:00;;;;;;;;;10.50;9.25;;;;;11.44;75.81;102135.63;5020111;28;50010;-67
2022/09/19 07:10:26;;;;;;;;;6.25;3.00;;;;;11.24;75.88;102103.31;5021610;28;49735;-74
2022/09/19 07:12:56;;;;;;;;;11.50;8.75;;;;;11.53;75.89;102143.88;5015706;28;49928;-72
2022/09/19 07:15:22;;;;;;;;;9.00;8.25;;;;;11.52;75.84;102131.59;5013386;28;49857;-72
2022/09/19 07:17:47;;;;;;;;;5.00;5.00;;;;;11.46;75.79;102124.34;5016573;28;50290;-69
2022/09/19 07:20:14;;;;;;;;;8.25;8.25;;;;;11.69;75.67;102145.38;5012727;28;49931;-72
2022/09/19 07:22:39;;;;;;;;;9.00;9.00;;;;;11.69;75.54;102143.66;5012228;28;50471;-70
2022/09/19 07:25:07;;;;;;;;;14.25;9.00;;;;;11.62;75.21;102122.31;5013148;28;49580;-69
2022/09/19 07:27:33;;;;;;;;;10.00;9.50;;;;;11.86;74.86;102146.94;5019821;28;49860;-69
2022/09/19 07:29:58;;;;;;;;;8.25;7.25;;;;;11.89;74.90;102154.97;5013309;28;49967;-69
2022/09/19 07:32:24;;;;;;;;;9.25;8.75;;;;;11.62;74.92;102096.91;5009566;28;52183;-76
2022/09/19 07:34:49;;;;;;;;;12.50;10.25;;;;;12.01;74.66;102160.69;5012171;28;50328;-72
2022/09/19 07:37:15;;;;;;;;;10.75;9.00;;;;;11.87;74.25;102124.13;4993729;28;51451;-73
2022/09/19 07:39:40;;;;;;;;;12.25;9.50;;;;;12.14;74.24;102162.00;5011432;28;49679;-76
2022/09/19 07:42:06;;;;;;;;;10.50;10.25;;;;;12.10;74.22;102140.81;5015192;28;50168;-68
2022/09/19 07:44:31;;;;;;;;;6.75;6.75;;;;;12.27;74.02;102169.53;5017659;28;49757;-70
2022/09/19 07:50:00;;;;;;;;;10.75;9.75;;;;;12.12;73.89;102139.13;4925329;28;49901;-69
2022/09/19 07:52:26;;;;;;;;;8.00;8.00;;;;;12.49;73.67;102176.47;4936371;28;49931;-75
2022/09/19 07:54:51;;;;;;;;;9.25;8.75;;;;;12.29;73.46;102127.47;4965791;28;50147;-77
2022/09/19 07:57:17;;;;;;;;;8.00;8.00;;;;;12.48;72.97;102148.34;5012252;28;54958;-75
2022/09/19 07:59:43;;;;;;;;;9.00;8.00;;;;;12.55;72.88;102149.44;5012702;28;49630;-75
2022/09/19 08:02:09;;;;;;;;;10.75;9.00;;;;;12.79;72.83;102191.53;5012625;28;50437;-76
2022/09/19 08:04:36;;;;;;;;;12.75;12.25;;;;;12.87;72.38;102180.41;5012158;28;49911;-74
2022/09/19 08:07:03;;;;;;;;;9.00;9.00;;;;;12.75;72.19;102148.38;5012030;28;50097;-74
2022/09/19 08:09:28;;;;;;;;;6.25;4.25;;;;;12.76;71.70;102139.63;5012011;28;49854;-79
2022/09/19 08:11:54;;;;;;;;;8.25;7.00;;;;;13.11;70.62;102185.59;5012702;28;49791;-77
2022/09/19 08:14:19;;;;;;;;;5.00;5.00;;;;;13.13;71.22;102180.41;5013731;28;50005;-74
2022/09/19 08:16:44;;;;;;;;;4.25;4.25;;;;;13.17;70.53;102175.28;5012072;28;49850;-67
2022/09/19 08:19:10;;;;;;;;;5.50;4.25;;;;;13.20;70.18;102166.59;5012190;28;49719;-84
2022/09/19 08:21:35;;;;;;;;;2.75;2.25;;;;;13.41;69.60;102182.19;5015949;28;50251;-77
2022/09/19 08:24:00;;;;;;;;;3.00;3.00;;;;;13.50;69.01;102184.22;5012199;28;49776;-74
2022/09/19 08:26:26;;;;;;;;;6.00;3.50;;;;;13.40;68.29;102151.41;5010956;28;56640;-65
2022/09/19 08:28:51;;;;;;;;;3.25;3.25;;;;;13.46;68.45;102163.03;5011998;28;50020;-77
2022/09/19 08:31:17;;;;;;;;;3.00;3.00;;;;;13.61;68.60;102181.13;5011921;28;50271;-77
2022/09/19 08:33:43;;;;;;;;;3.50;3.50;;;;;13.69;67.91;102181.31;5014426;28;49520;-68
2022/09/19 08:36:10;;;;;;;;;3.00;2.00;;;;;13.86;68.06;102188.00;5010193;28;52309;-72
2022/09/19 08:38:36;;;;;;;;;4.00;3.00;;;;;13.91;67.28;102194.34;5011147;28;49851;-74
2022/09/19 08:41:23;;;;;;;;;3.00;1.00;;;;;13.99;65.38;102189.25;5011260;28;49869;-69
2022/09/19 08:43:55;;;;;;;;;0.50;0.50;;;;;14.05;63.60;102186.81;5014251;28;49771;-76
2022/09/19 08:46:40;;;;;;;;;0.00;0.00;;;;;14.14;61.28;102189.72;5012240;28;50246;-77
2022/09/19 08:49:32;;;;;;;;;2.00;1.25;;;;;14.06;60.26;102166.59;5010928;28;49665;-73
2022/09/19 08:52:34;;;;;;;;;1.00;1.00;;;;;14.35;59.54;102193.81;4993366;28;50022;-70
2022/09/19 08:55:01;;;;;;;;;0.00;0.00;;;;;13.91;58.67;102101.06;5008207;28;49955;-79
2022/09/19 08:57:54;;;;;;;;;0.50;0.00;;;;;14.54;58.71;102189.13;5011130;28;49702;-71
2022/09/19 09:00:22;;;;;;;;;0.00;0.00;;;;;14.33;57.52;102135.66;5011398;28;49971;-73
2022/09/19 09:02:59;;;;;;;;;2.00;2.00;;;;;14.81;57.20;102190.72;5011537;28;49947;-67
2022/09/19 09:06:02;;;;;;;;;1.50;1.00;;;;;14.89;56.24;102160.09;5011356;28;49932;-70
2022/09/19 09:09:00;;;;;;;;;2.00;1.00;;;;;15.17;56.50;102190.75;4976396;28;50725;-72
2022/09/19 09:11:49;;;;;;;;;1.00;0.25;;;;;15.21;55.92;102203.19;5011517;28;49675;-69
2022/09/19 09:14:41;;;;;;;;;0.75;0.00;;;;;15.14;54.05;102203.91;5011373;28;49740;-72
2022/09/19 09:17:13;;;;;;;;;1.50;0.50;;;;;15.17;53.46;102202.25;5011478;28;49690;-78
2022/09/19 09:20:07;;;;;;;;;1.00;1.00;;;;;15.21;54.03;102200.56;5010995;28;53259;-73
2022/09/19 09:22:40;;;;;;;;;1.00;0.00;;;;;15.21;52.02;102203.19;5011106;28;49885;-69
2022/09/19 09:25:20;;;;;;;;;3.25;1.00;;;;;15.11;51.71;102185.31;5010926;28;49756;-69
2022/09/19 09:28:27;;;;;;;;;0.00;0.00;;;;;15.30;51.73;102206.06;5011656;28;49803;-75
2022/09/19 09:31:04;;;;;;;;;0.00;0.00;;;;;15.03;50.35;102152.50;4979943;28;50689;-69
2022/09/19 09:33:37;;;;;;;;;1.00;0.00;;;;;15.19;52.00;102186.41;5004357;28;49572;-74
2022/09/19 09:36:15;;;;;;;;;0.25;0.25;;;;;15.28;51.77;102202.50;5005051;28;50031;-80
2022/09/19 09:38:52;;;;;;;;;1.00;1.00;;;;;15.15;52.46;102188.09;5011111;28;49872;-70
2022/09/19 09:41:52;;;;;;;;;0.50;0.00;;;;;15.31;52.43;102206.97;5010516;28;50801;-69
2022/09/19 09:44:43;;;;;;;;;1.00;0.00;;;;;15.39;51.78;102211.59;5010706;28;49647;-69
2022/09/19 09:47:39;;;;;;;;;1.00;0.00;;;;;15.52;51.83;102201.28;5000221;28;49738;-71
2022/09/19 09:50:16;;;;;;;;;4.00;2.00;;;;;15.45;50.80;102181.75;5011027;28;50010;-75
2022/09/19 09:52:54;;;;;;;;;5.25;1.75;;;;;15.62;51.25;102198.91;5010533;28;50628;-72
2022/09/19 09:58:42;;;;;;;;;1.00;0.00;;;;;15.08;49.80;102135.88;5012259;28;49878;-70
2022/09/19 10:04:54;;;;;;;;;2.00;2.00;;;;;15.38;51.45;102142.75;5010495;28;49682;-71
2022/09/19 10:07:37;;;;;;;;;2.25;0.00;;;;;15.42;50.09;102145.50;4949928;28;49723;-72
2022/09/19 10:10:11;;;;;;;;;0.00;0.00;;;;;15.60;49.71;102179.47;4949724;28;49851;-69
2022/09/19 10:12:44;;;;;;;;;0.00;0.00;;;;;15.45;49.92;102132.34;4991460;28;49940;-74
2022/09/19 10:15:16;;;;;;;;;0.00;0.00;;;;;15.86;49.27;102193.28;5010972;28;50278;-70
2022/09/19 10:17:48;;;;;;;;;0.00;0.00;;;;;15.85;49.58;102165.03;5010905;28;49727;-70
2022/09/19 10:20:22;;;;;;;;;0.25;0.00;;;;;15.81;47.55;102141.97;5010458;28;49762;-73
2022/09/19 10:22:48;;;;;;;;;0.00;0.00;;;;;15.68;46.87;102147.88;5010716;28;49786;-78
2022/09/19 10:25:16;;;;;;;;;1.50;0.00;;;;;16.11;47.05;102189.38;5010053;28;49972;-77
2022/09/19 10:27:42;;;;;;;;;1.25;0.00;;;;;15.72;46.09;102136.47;5020040;28;49557;-72
2022/09/19 10:30:16;;;;;;;;;2.00;0.00;;;;;16.24;46.38;102182.59;5010382;28;49708;-80
2022/09/19 10:32:43;;;;;;;;;0.00;0.00;;;;;16.13;45.99;102141.78;5007956;28;49595;-81
2022/09/19 10:35:32;;;;;;;;;1.00;1.00;;;;;16.52;46.85;102182.28;5014121;28;50209;-77
2022/09/19 10:38:13;;;;;;;;;0.00;0.00;;;;;16.57;47.14;102179.72;5017738;28;50190;-72
2022/09/19 10:40:57;;;;;;;;;0.25;0.25;;;;;16.38;46.82;102140.47;5015462;28;49776;-74
2022/09/19 10:43:30;;;;;;;;;0.00;0.00;;;;;15.44;46.41;101982.38;5003671;28;49937;-76
2022/09/19 10:46:07;;;;;;;;;0.00;0.00;;;;;16.14;45.93;102061.44;4986722;28;50516;-73
2022/09/19 10:48:34;;;;;;;;;1.00;0.00;;;;;15.82;46.03;101962.81;5009442;28;49757;-68
2022/09/19 10:51:08;;;;;;;;;2.00;0.00;;;;;16.93;45.28;102110.56;5009629;28;49968;-70
2022/09/19 10:53:35;;;;;;;;;1.00;0.50;;;;;17.55;45.30;102165.44;5010587;28;50030;-68
2022/09/19 10:56:04;;;;;;;;;2.00;1.00;;;;;17.82;44.12;102165.88;4992717;28;52390;-68
2022/09/19 10:58:35;;;;;;;;;0.00;0.00;;;;;17.54;44.61;102116.75;5020674;28;49793;-68
2022/09/19 11:01:02;;;;;;;;;0.00;0.00;;;;;17.25;43.64;102034.06;5017976;28;49624;-69
2022/09/19 11:03:33;;;;;;;;;0.00;0.00;;;;;17.51;44.13;102082.22;5022089;28;49693;-69
2022/09/19 11:06:16;;;;;;;;;0.00;0.00;;;;;17.71;44.24;102122.34;5017350;28;49869;-72
2022/09/19 11:08:48;;;;;;;;;0.00;0.00;;;;;17.79;45.18;102163.19;5016447;28;49631;-70
2022/09/19 11:11:47;;;;;;;;;2.00;1.00;;;;;17.17;45.77;102086.13;5010599;28;49698;-73
2022/09/19 11:14:18;;;;;;;;;0.00;0.00;;;;;17.56;45.95;102168.13;5017147;28;50022;-71
2022/09/19 11:17:15;;;;;;;;;0.00;0.00;;;;;17.52;45.90;102168.97;5012649;28;50303;-71
2022/09/19 11:20:05;;;;;;;;;0.75;0.75;;;;;17.47;44.84;102160.06;5015769;28;50049;-70
2022/09/19 11:22:44;;;;;;;;;0.00;0.00;;;;;17.52;44.99;102187.53;5014088;28;49679;-70
2022/09/19 11:25:21;;;;;;;;;0.00;0.00;;;;;17.72;44.47;102156.00;5021796;28;49957;-73
2022/09/19 11:28:13;;;;;;;;;0.00;0.00;;;;;17.92;44.14;102150.94;5028371;28;50191;-73
2022/09/19 11:31:01;;;;;;;;;0.00;0.00;;;;;17.74;43.41;102133.88;5018619;28;49941;-68
2022/09/19 11:33:35;;;;;;;;;1.00;1.00;;;;;16.69;43.51;101977.56;4979403;28;49978;-69
2022/09/19 11:36:26;;;;;;;;;0.00;0.00;;;;;17.71;43.52;102160.41;5016310;28;50214;-73
2022/09/19 11:39:03;;;;;;;;;1.75;0.50;;;;;16.42;43.89;101956.81;5012268;28;51120;-72
2022/09/19 11:41:58;;;;;;;;;0.00;0.00;;;;;17.61;42.59;102165.53;5012507;28;49746;-72
2022/09/19 11:44:43;;;;;;;;;0.00;0.00;;;;;16.38;40.64;101965.56;5012612;28;49904;-74
2022/09/19 11:47:31;;;;;;;;;3.00;1.00;;;;;17.49;41.11;102171.56;5012573;28;49665;-71
2022/09/19 11:50:25;;;;;;;;;0.00;0.00;;;;;16.50;42.09;102001.13;5006907;28;50857;-72
2022/09/19 11:53:23;;;;;;;;;0.00;0.00;;;;;17.62;41.43;102157.59;5012428;28;50023;-72
2022/09/19 11:56:40;;;;;;;;;0.00;0.00;;;;;17.68;41.91;102149.72;5012387;28;49827;-72
2022/09/19 11:59:26;;;;;;;;;1.00;1.00;;;;;17.49;41.71;102147.69;4931516;28;50130;-74
2022/09/19 12:02:19;;;;;;;;;0.75;0.75;;;;;16.96;40.47;102019.50;5005275;28;50550;-73